Elton, Pennsylvania
Current Conditions -  °F | °C
As of 2:54 AM on Sunday 26 Oct 2014 (Local Time) from KJST Reporting Station
Few Clouds Few Clouds  
Wind Chill: 10°   Ceiling: Unl
Heat Index: 10°   Visibility: 10mi
Dew Point: -1°   Wind: 18mph
Humidity: 46%   Direction: 300°WNW
Pressure: 29.76"   Gusts: 26mph
Location:  40.28°N, 78.8°W
Report Text: KJST 260654Z AUTO 30016G23KT 10SM FEW050 10/M01 A2976 RMK AO2 PK WND 30029/0619 SLP074 T01001011
Loading
Personal Weather Stations






























Interactive Weather Map
Tropical Storm Tracking
New forecast layout! Learn more

10-Day Weather Forecast

Advertisements
Track Severe Weather on mobile